createdAt,value
2023-02-07T00:00:47.323Z,0.70
2023-02-07T00:10:51.691Z,0.81
2023-02-07T00:20:59.923Z,0.78
2023-02-07T00:31:09.369Z,0.72
2023-02-07T00:41:15.248Z,0.63
2023-02-07T00:51:20.169Z,0.41
2023-02-07T01:01:24.883Z,0.23
2023-02-07T01:11:29.773Z,0.19
2023-02-07T01:21:33.621Z,0.39
2023-02-07T01:31:38.114Z,0.40
2023-02-07T01:41:41.200Z,0.39
2023-02-07T01:51:49.677Z,0.28
2023-02-07T02:01:53.108Z,0.16
2023-02-07T02:12:25.662Z,0.24
2023-02-07T02:22:57.463Z,0.27
2023-02-07T02:33:15.032Z,0.11
2023-02-07T02:43:27.106Z,0.01
2023-02-07T02:53:31.762Z,-0.17
2023-02-07T03:03:58.940Z,-0.24
2023-02-07T03:14:12.944Z,-0.41
2023-02-07T03:24:19.662Z,-0.33
2023-02-07T03:34:28.863Z,0.03
2023-02-07T03:44:34.549Z,0.40
2023-02-07T03:54:38.951Z,0.49
2023-02-07T04:04:42.012Z,0.67
2023-02-07T04:14:46.338Z,0.48
2023-02-07T04:24:49.807Z,0.35
2023-02-07T04:34:54.209Z,0.26
2023-02-07T04:44:57.202Z,0.28
2023-02-07T04:55:01.589Z,0.14
2023-02-07T05:05:04.536Z,-0.03
2023-02-07T05:15:09.970Z,-0.12
2023-02-07T05:25:13.564Z,-0.23
2023-02-07T05:35:18.445Z,-0.42
2023-02-07T05:45:21.843Z,-0.41
2023-02-07T05:55:26.268Z,-0.49
2023-02-07T06:05:31.872Z,-0.55
2023-02-07T06:15:36.771Z,-0.53
2023-02-07T06:25:40.491Z,-0.78
2023-02-07T06:35:47.383Z,-0.81
2023-02-07T06:45:50.501Z,-0.99
2023-02-07T06:55:55.147Z,-1.12
2023-02-07T07:05:59.045Z,-1.36
2023-02-07T07:16:03.627Z,-1.38
2023-02-07T07:26:07.073Z,-1.42
2023-02-07T07:36:11.773Z,-1.51
2023-02-07T07:46:15.087Z,-1.39
2023-02-07T07:56:19.502Z,-1.35
2023-02-07T08:06:22.600Z,-1.26
2023-02-07T08:16:27.388Z,-1.28
2023-02-07T08:26:30.523Z,-1.15
2023-02-07T08:36:35.074Z,-1.20
2023-02-07T08:46:38.305Z,-1.32
2023-02-07T08:56:43.101Z,-1.26
2023-02-07T09:06:46.052Z,-1.06
2023-02-07T09:16:50.438Z,-0.70
2023-02-07T09:26:53.536Z,-0.30
2023-02-07T09:36:57.908Z,0.05
2023-02-07T09:47:04.220Z,0.36
2023-02-07T09:57:15.709Z,0.67
2023-02-07T10:07:19.448Z,0.93
2023-02-07T10:17:41.199Z,1.31
2023-02-07T10:27:56.185Z,1.64
2023-02-07T10:38:03.283Z,2.15
2023-02-07T10:48:14.445Z,2.32
2023-02-07T10:58:24.746Z,2.66
2023-02-07T11:08:29.516Z,2.75
2023-02-07T11:18:45.943Z,3.16
2023-02-07T11:28:54.943Z,3.16
2023-02-07T11:39:01.300Z,3.25
2023-02-07T11:49:09.166Z,3.57
2023-02-07T11:59:18.103Z,3.85
2023-02-07T12:09:34.749Z,4.12
2023-02-07T12:19:56.323Z,4.02
2023-02-07T12:30:10.337Z,4.38
2023-02-07T12:40:22.702Z,4.52
2023-02-07T12:50:39.542Z,4.61
2023-02-07T13:00:54.186Z,4.66
2023-02-07T13:11:05.102Z,4.78
2023-02-07T13:21:19.366Z,5.05
2023-02-07T13:31:25.672Z,5.00
2023-02-07T13:41:38.271Z,5.09
2023-02-07T13:51:51.265Z,5.12
2023-02-07T14:02:00.788Z,5.29
2023-02-07T14:12:06.050Z,5.40
2023-02-07T14:22:17.462Z,5.54
2023-02-07T14:32:29.924Z,5.71
2023-02-07T14:42:34.740Z,5.67
2023-02-07T14:52:40.302Z,5.60
2023-02-07T15:02:51.747Z,5.55
2023-02-07T15:12:56.256Z,5.54
2023-02-07T15:23:03.327Z,5.56
2023-02-07T15:33:24.622Z,5.45
2023-02-07T15:43:31.706Z,5.23
2023-02-07T15:53:35.064Z,5.00
2023-02-07T16:03:44.320Z,4.83
2023-02-07T16:13:50.805Z,4.63
2023-02-07T16:24:05.990Z,4.48
2023-02-07T16:34:12.153Z,4.20
2023-02-07T16:44:21.325Z,3.96
2023-02-07T16:54:25.091Z,3.70
2023-02-07T17:04:29.796Z,3.51
2023-02-07T17:14:32.798Z,3.47
2023-02-07T17:24:37.306Z,3.35
2023-02-07T17:34:40.603Z,3.29
2023-02-07T17:44:45.351Z,3.21
2023-02-07T17:54:49.742Z,2.81
2023-02-07T18:04:54.121Z,2.36
2023-02-07T18:14:57.274Z,2.05
2023-02-07T18:25:01.820Z,1.86
2023-02-07T18:35:05.948Z,1.67
2023-02-07T18:45:13.643Z,1.43
2023-02-07T18:55:16.904Z,1.47
2023-02-07T19:05:21.430Z,1.29
2023-02-07T19:15:24.740Z,0.98
2023-02-07T19:25:29.554Z,0.65
2023-02-07T19:35:35.620Z,0.49
2023-02-07T19:45:40.333Z,0.37
2023-02-07T19:55:43.664Z,0.21
2023-02-07T20:05:48.142Z,0.00
2023-02-07T20:15:51.129Z,-0.21
2023-02-07T20:25:55.671Z,-0.38
2023-02-07T20:35:58.810Z,-0.46
2023-02-07T20:46:08.220Z,-0.61
2023-02-07T20:56:13.503Z,-0.56
2023-02-07T21:06:18.238Z,-0.66
2023-02-07T21:16:21.667Z,-0.79
2023-02-07T21:26:27.627Z,-0.98
2023-02-07T21:36:33.900Z,-1.20
2023-02-07T21:46:40.438Z,-1.25
2023-02-07T21:56:44.809Z,-1.03
2023-02-07T22:06:49.716Z,-0.82
2023-02-07T22:16:54.074Z,-0.63
2023-02-07T22:26:58.643Z,-0.49
2023-02-07T22:37:01.727Z,-0.44
2023-02-07T22:47:06.293Z,-0.44
2023-02-07T22:57:13.561Z,-0.52
2023-02-07T23:07:18.023Z,-0.55
2023-02-07T23:17:21.331Z,-0.44
2023-02-07T23:27:25.757Z,-0.52
2023-02-07T23:37:28.745Z,-0.62
2023-02-07T23:47:33.138Z,-0.72
2023-02-07T23:57:36.108Z,-0.81
